Time;durP1;ratioP1;P1;durP2;ratioP2;P2;SDS_P1;SDS_P2;PMS_P1;PMS_P2;Temp;Humidity;BMP_temperature;BMP_pressure;BME280_temperature;BME280_humidity;BME280_pressure;Samples;Min_cycle;Max_cycle;Signal;HPM_P1;HPM_P2
2021/06/12 00:00:35;;;;;;;0.30;0.20;;;12.10;99.90;;;;;;5030844;28;20369;-89
2021/06/12 00:03:04;;;;;;;0.20;0.10;;;12.20;99.90;;;;;;5030586;28;20914;-88
2021/06/12 00:05:32;;;;;;;0.10;0.10;;;12.30;99.90;;;;;;5035056;28;20912;-88
2021/06/12 00:07:59;;;;;;;0.20;0.20;;;12.40;99.90;;;;;;5033820;28;20413;-88
2021/06/12 00:10:30;;;;;;;0.17;0.17;;;12.50;99.90;;;;;;5036700;28;20400;-88
2021/06/12 00:13:01;;;;;;;0.55;0.17;;;12.90;99.90;;;;;;5046262;28;20862;-92
2021/06/12 00:15:29;;;;;;;2.33;0.30;;;13.10;99.90;;;;;;5058411;28;20417;-92
2021/06/12 00:17:56;;;;;;;0.43;0.20;;;13.60;99.90;;;;;;5060395;28;20380;-88
2021/06/12 00:20:27;;;;;;;0.10;0.10;;;14.50;99.90;;;;;;5057365;28;20379;-90
2021/06/12 00:22:55;;;;;;;0.40;0.20;;;15.60;98.40;;;;;;5056831;28;20372;-88
2021/06/12 00:25:26;;;;;;;0.10;0.10;;;15.40;96.60;;;;;;5056154;28;20364;-91
2021/06/12 00:27:56;;;;;;;1.50;0.30;;;15.10;97.40;;;;;;5054604;28;20607;-89
2021/06/12 00:30:23;;;;;;;0.50;0.30;;;14.70;98.70;;;;;;5054113;28;20469;-88
2021/06/12 00:32:52;;;;;;;0.10;0.10;;;14.20;99.80;;;;;;5056296;28;20457;-91
2021/06/12 00:35:20;;;;;;;1.52;0.40;;;13.80;99.90;;;;;;5036698;28;20444;-90
2021/06/12 00:37:47;;;;;;;0.50;0.10;;;13.60;99.90;;;;;;5035933;28;20421;-90
2021/06/12 00:40:16;;;;;;;0.17;0.15;;;13.40;99.90;;;;;;5017042;28;20381;-88
2021/06/12 00:42:43;;;;;;;0.20;0.20;;;13.30;99.90;;;;;;5035959;28;20396;-89
2021/06/12 00:45:20;;;;;;;0.65;0.20;;;13.30;99.90;;;;;;5034845;28;20361;-88
2021/06/12 00:47:48;;;;;;;0.20;0.20;;;13.30;99.90;;;;;;5033101;28;20792;-90
2021/06/12 00:50:16;;;;;;;0.30;0.20;;;13.30;99.90;;;;;;5034234;28;20373;-90
2021/06/12 00:52:43;;;;;;;0.30;0.22;;;13.20;99.90;;;;;;5035128;28;20442;-88
2021/06/12 00:55:14;;;;;;;0.38;0.30;;;13.20;99.90;;;;;;5035122;28;20409;-88
2021/06/12 00:57:42;;;;;;;0.47;0.20;;;13.20;99.90;;;;;;5034184;28;20860;-91
2021/06/12 01:00:12;;;;;;;0.30;0.20;;;13.30;99.90;;;;;;5034778;28;20393;-91
2021/06/12 01:02:39;;;;;;;0.20;0.20;;;13.40;99.90;;;;;;5034144;28;20484;-91
2021/06/12 01:05:09;;;;;;;0.30;0.20;;;13.40;99.90;;;;;;5036267;28;20386;-91
2021/06/12 01:07:36;;;;;;;0.30;0.20;;;13.40;99.90;;;;;;5035500;28;20389;-91
2021/06/12 01:10:06;;;;;;;1.20;0.20;;;13.50;99.90;;;;;;5035345;28;20381;-93
2021/06/12 01:13:11;;;;;;;0.10;0.10;;;13.50;99.90;;;;;;5034879;28;20425;-91
2021/06/12 01:15:58;;;;;;;0.10;0.10;;;13.50;99.90;;;;;;5020421;28;20401;-86
2021/06/12 01:18:31;;;;;;;0.35;0.20;;;13.60;99.90;;;;;;5032627;28;20393;-86
2021/06/12 01:21:16;;;;;;;0.20;0.20;;;13.70;99.90;;;;;;5033416;28;20377;-91
2021/06/12 01:24:31;;;;;;;1.23;0.20;;;13.70;99.90;;;;;;5033131;28;20398;-88
2021/06/12 01:27:21;;;;;;;0.50;0.20;;;13.70;99.90;;;;;;5031164;28;20416;-91
2021/06/12 01:30:08;;;;;;;0.20;0.20;;;13.60;99.90;;;;;;5036644;28;20424;-89
2021/06/12 01:32:38;;;;;;;0.20;0.20;;;13.70;99.90;;;;;;5033259;28;20404;-92
2021/06/12 01:35:13;;;;;;;0.30;0.30;;;13.70;99.90;;;;;;5047879;28;20396;-91
2021/06/12 01:37:45;;;;;;;0.30;0.20;;;13.80;99.90;;;;;;5051319;28;20970;-89
2021/06/12 01:40:14;;;;;;;0.43;0.32;;;13.70;99.90;;;;;;5040657;28;20376;-91
2021/06/12 01:42:46;;;;;;;0.50;0.50;;;13.90;99.90;;;;;;5052588;28;20391;-90
2021/06/12 01:45:14;;;;;;;0.82;0.40;;;14.00;99.90;;;;;;5051330;28;20468;-87
2021/06/12 01:47:41;;;;;;;0.60;0.40;;;14.00;99.90;;;;;;5054107;28;20388;-91
2021/06/12 01:50:11;;;;;;;0.25;0.25;;;14.10;99.90;;;;;;5053311;28;20403;-91
2021/06/12 01:52:40;;;;;;;0.60;0.20;;;14.20;99.90;;;;;;5052250;28;20392;-89
2021/06/12 01:55:08;;;;;;;0.35;0.20;;;14.20;99.90;;;;;;5050608;28;20395;-90
2021/06/12 01:57:36;;;;;;;0.30;0.30;;;14.20;99.90;;;;;;5050114;28;20442;-84
2021/06/12 02:00:05;;;;;;;0.60;0.30;;;14.30;99.90;;;;;;5055003;28;20424;-88
2021/06/12 02:02:32;;;;;;;0.20;0.20;;;14.30;99.50;;;;;;5050565;28;20786;-88
2021/06/12 02:05:01;;;;;;;0.20;0.20;;;14.30;99.70;;;;;;5051941;28;20477;-87
2021/06/12 02:07:31;;;;;;;1.92;0.30;;;14.30;98.80;;;;;;5063065;28;20402;-90
2021/06/12 02:10:00;;;;;;;1.97;0.40;;;14.40;98.70;;;;;;5052539;28;20467;-87
2021/06/12 02:12:28;;;;;;;0.70;0.20;;;14.40;99.20;;;;;;5050860;28;20395;-93
2021/06/12 02:14:59;;;;;;;0.90;0.30;;;14.50;97.90;;;;;;5051376;28;20407;-89
2021/06/12 02:17:30;;;;;;;0.47;0.10;;;14.50;98.00;;;;;;5052478;28;20673;-90
2021/06/12 02:19:57;;;;;;;0.30;0.28;;;14.60;98.00;;;;;;5054465;28;20384;-89
2021/06/12 02:22:24;;;;;;;0.20;0.17;;;14.70;98.00;;;;;;5051532;28;20534;-90
2021/06/12 02:24:51;;;;;;;0.10;0.10;;;14.80;98.20;;;;;;5059812;28;20882;-90
2021/06/12 02:27:21;;;;;;;1.10;0.17;;;14.90;98.30;;;;;;5057017;28;20418;-88
2021/06/12 02:29:51;;;;;;;0.30;0.10;;;14.90;97.50;;;;;;5054753;28;20392;-88
2021/06/12 02:32:19;;;;;;;0.17;0.17;;;15.00;96.80;;;;;;5064999;28;20376;-88
2021/06/12 02:34:47;;;;;;;0.10;0.10;;;15.00;96.70;;;;;;5057499;28;20400;-91
2021/06/12 02:37:15;;;;;;;0.10;0.10;;;15.00;95.80;;;;;;5051808;28;20771;-88
2021/06/12 02:39:42;;;;;;;1.10;0.08;;;15.10;95.20;;;;;;5050507;28;20399;-87
2021/06/12 02:42:10;;;;;;;0.60;0.10;;;15.20;94.50;;;;;;5050094;28;20442;-87
2021/06/12 02:44:37;;;;;;;0.10;0.10;;;15.20;93.40;;;;;;5051225;28;20379;-87
2021/06/12 02:47:08;;;;;;;0.10;0.00;;;15.20;93.90;;;;;;5050980;28;20399;-82
2021/06/12 02:49:39;;;;;;;0.10;0.10;;;15.20;93.10;;;;;;5048626;28;20495;-83
2021/06/12 02:52:15;;;;;;;0.30;0.10;;;15.30;94.00;;;;;;5049131;28;20388;-82
2021/06/12 02:54:44;;;;;;;0.20;0.00;;;15.40;94.10;;;;;;5050149;28;20390;-83
2021/06/12 02:57:13;;;;;;;1.10;0.00;;;15.40;93.90;;;;;;5050152;28;20414;-84
2021/06/12 02:59:46;;;;;;;0.68;0.10;;;15.50;93.60;;;;;;5049268;28;20423;-85
2021/06/12 03:02:17;;;;;;;0.10;0.10;;;15.50;93.70;;;;;;5050321;28;20380;-85
2021/06/12 03:04:45;;;;;;;0.30;0.10;;;15.50;93.70;;;;;;5049709;28;21101;-85
2021/06/12 03:07:14;;;;;;;0.15;0.10;;;15.50;93.60;;;;;;5049676;28;20747;-84
2021/06/12 03:09:44;;;;;;;0.50;0.10;;;15.50;93.90;;;;;;5050803;28;20371;-84
2021/06/12 03:12:13;;;;;;;2.65;0.17;;;15.50;94.40;;;;;;5047594;28;20474;-85
2021/06/12 03:14:42;;;;;;;0.30;0.20;;;15.50;94.10;;;;;;5048820;28;20511;-85
2021/06/12 03:17:11;;;;;;;0.20;0.17;;;15.40;93.80;;;;;;5049850;28;20410;-84
2021/06/12 03:19:39;;;;;;;1.27;0.10;;;15.40;93.40;;;;;;5048052;28;20388;-85
2021/06/12 03:22:07;;;;;;;0.20;0.10;;;15.40;93.20;;;;;;5050495;28;20462;-85
2021/06/12 03:24:36;;;;;;;0.40;0.10;;;15.40;93.20;;;;;;5050105;28;20839;-85
2021/06/12 03:27:04;;;;;;;0.10;0.10;;;15.30;93.10;;;;;;5047691;28;20403;-86
2021/06/12 03:29:34;;;;;;;0.00;0.00;;;15.30;93.60;;;;;;5048948;28;20474;-83
2021/06/12 03:32:02;;;;;;;0.90;0.10;;;15.30;93.50;;;;;;5049718;28;20383;-86
2021/06/12 03:34:30;;;;;;;0.00;0.00;;;15.30;93.60;;;;;;5048124;28;20458;-86
2021/06/12 03:36:58;;;;;;;0.05;0.05;;;15.30;92.50;;;;;;5049934;28;20407;-86
2021/06/12 03:39:25;;;;;;;1.45;0.17;;;15.30;90.40;;;;;;5049465;28;20433;-84
2021/06/12 03:41:54;;;;;;;0.30;0.30;;;15.30;90.10;;;;;;5046361;28;20408;-86
2021/06/12 03:44:23;;;;;;;0.90;0.30;;;15.30;89.70;;;;;;5049341;28;20382;-84
2021/06/12 03:46:51;;;;;;;0.20;0.20;;;15.30;90.10;;;;;;5048380;28;20409;-84
2021/06/12 03:49:19;;;;;;;1.80;0.20;;;15.40;90.00;;;;;;5048308;28;20400;-86
2021/06/12 03:51:48;;;;;;;0.10;0.10;;;15.40;88.70;;;;;;5051693;28;20457;-85
2021/06/12 03:54:15;;;;;;;2.15;0.40;;;15.30;90.30;;;;;;5035701;28;20918;-84
2021/06/12 03:56:43;;;;;;;0.10;0.10;;;15.30;91.10;;;;;;5049536;28;20463;-85
2021/06/12 03:59:11;;;;;;;0.30;0.10;;;15.30;90.90;;;;;;5048422;28;20733;-84
2021/06/12 04:01:38;;;;;;;0.10;0.10;;;15.30;91.60;;;;;;5048762;28;20388;-86
2021/06/12 04:04:05;;;;;;;0.10;0.10;;;15.30;91.50;;;;;;5049008;28;20484;-86
2021/06/12 04:06:32;;;;;;;0.05;0.05;;;15.20;91.00;;;;;;5049250;28;20720;-85
2021/06/12 04:08:59;;;;;;;1.10;0.20;;;15.20;88.50;;;;;;5048963;28;20375;-84
2021/06/12 04:11:26;;;;;;;0.13;0.10;;;15.20;90.40;;;;;;5048336;28;20396;-85
2021/06/12 04:13:53;;;;;;;0.30;0.10;;;15.20;90.30;;;;;;5049317;28;20731;-86
2021/06/12 04:16:20;;;;;;;0.17;0.17;;;15.20;90.40;;;;;;5049728;28;20414;-87
2021/06/12 04:18:47;;;;;;;0.22;0.10;;;15.20;90.60;;;;;;5049683;28;20379;-86
2021/06/12 04:21:14;;;;;;;0.10;0.10;;;15.10;91.10;;;;;;5049059;28;20396;-84
2021/06/12 04:23:41;;;;;;;0.10;0.10;;;15.00;91.00;;;;;;5049073;28;20387;-84
2021/06/12 04:26:08;;;;;;;0.38;0.15;;;15.00;92.30;;;;;;5048670;28;20391;-84
2021/06/12 04:28:35;;;;;;;0.10;0.10;;;15.00;90.00;;;;;;5046233;28;20765;-86
2021/06/12 04:31:02;;;;;;;0.30;0.10;;;14.90;89.50;;;;;;5048690;28;20392;-85
2021/06/12 04:33:29;;;;;;;0.15;0.10;;;14.90;90.20;;;;;;5048585;28;20395;-88
2021/06/12 04:35:56;;;;;;;1.20;0.20;;;14.90;90.80;;;;;;5049295;28;20497;-90
2021/06/12 04:38:23;;;;;;;0.30;0.28;;;14.90;90.90;;;;;;5049496;28;20890;-89
2021/06/12 04:40:50;;;;;;;0.70;0.20;;;14.80;91.30;;;;;;5050142;28;20774;-87
2021/06/12 04:43:17;;;;;;;0.88;0.20;;;14.80;91.40;;;;;;5047227;28;20471;-87
2021/06/12 04:45:44;;;;;;;1.55;0.20;;;14.80;91.50;;;;;;5052330;28;20392;-86
2021/06/12 04:48:11;;;;;;;0.10;0.10;;;14.80;91.60;;;;;;5030827;28;20461;-87
2021/06/12 04:50:39;;;;;;;0.20;0.20;;;14.80;92.10;;;;;;5038006;28;20391;-87
2021/06/12 04:53:08;;;;;;;0.20;0.20;;;14.80;91.00;;;;;;5053061;28;20438;-87
2021/06/12 04:55:36;;;;;;;0.13;0.13;;;14.80;91.10;;;;;;5052813;28;20394;-88
2021/06/12 04:58:04;;;;;;;0.50;0.20;;;14.70;91.30;;;;;;5053917;28;20386;-88
2021/06/12 05:00:31;;;;;;;0.30;0.10;;;14.70;91.30;;;;;;5052741;28;20391;-87
2021/06/12 05:02:58;;;;;;;0.10;0.10;;;14.70;91.60;;;;;;5051520;28;20402;-88
2021/06/12 05:05:25;;;;;;;0.10;0.10;;;14.70;91.40;;;;;;5051955;28;20372;-89
2021/06/12 05:07:52;;;;;;;0.50;0.33;;;14.60;92.30;;;;;;5053694;28;20891;-88
2021/06/12 05:10:19;;;;;;;0.60;0.30;;;14.60;92.10;;;;;;5054644;28;20376;-85
2021/06/12 05:12:46;;;;;;;0.50;0.40;;;14.60;92.30;;;;;;5053362;28;20383;-88
2021/06/12 05:15:13;;;;;;;0.50;0.50;;;14.50;92.60;;;;;;5053158;28;20529;-87
2021/06/12 05:17:41;;;;;;;0.90;0.40;;;14.50;93.20;;;;;;5052755;28;20384;-88
2021/06/12 05:20:10;;;;;;;0.47;0.30;;;14.50;93.10;;;;;;5052313;28;20426;-87
2021/06/12 05:22:38;;;;;;;0.25;0.20;;;14.50;93.30;;;;;;5051908;28;20394;-86
2021/06/12 05:25:05;;;;;;;0.43;0.25;;;14.40;93.00;;;;;;5058213;28;20475;-88
2021/06/12 05:27:32;;;;;;;1.17;0.10;;;14.30;92.90;;;;;;5052909;28;20383;-87
2021/06/12 05:29:59;;;;;;;0.35;0.20;;;14.30;93.10;;;;;;5053900;28;20515;-89
2021/06/12 05:32:26;;;;;;;0.10;0.10;;;14.30;93.50;;;;;;5056257;28;20384;-88
2021/06/12 05:34:56;;;;;;;0.13;0.13;;;14.20;94.30;;;;;;5043551;28;20425;-84
2021/06/12 05:37:23;;;;;;;1.70;0.27;;;14.20;93.40;;;;;;5039576;28;20841;-91
2021/06/12 05:39:50;;;;;;;0.28;0.10;;;14.10;93.50;;;;;;5039026;28;20399;-88
2021/06/12 05:42:17;;;;;;;0.20;0.20;;;14.10;94.30;;;;;;5052086;28;20402;-90
2021/06/12 05:44:44;;;;;;;0.20;0.20;;;14.00;94.10;;;;;;5054767;28;20371;-92
2021/06/12 05:47:11;;;;;;;0.22;0.15;;;14.00;94.60;;;;;;5054117;28;20372;-87
2021/06/12 05:49:37;;;;;;;0.30;0.30;;;13.90;94.80;;;;;;5037574;28;20892;-89
2021/06/12 05:52:05;;;;;;;0.28;0.20;;;13.80;95.50;;;;;;5035898;28;20385;-88
2021/06/12 05:54:32;;;;;;;0.27;0.27;;;13.80;95.20;;;;;;5037145;28;20392;-88
2021/06/12 05:56:59;;;;;;;0.25;0.25;;;13.80;95.10;;;;;;5040486;28;20420;-90
2021/06/12 05:59:26;;;;;;;0.63;0.40;;;13.80;95.30;;;;;;5049367;28;20394;-87
2021/06/12 06:01:53;;;;;;;0.60;0.40;;;13.70;95.80;;;;;;5035314;28;20732;-84
2021/06/12 06:04:20;;;;;;;0.30;0.30;;;13.60;96.20;;;;;;5036005;28;20409;-89
2021/06/12 06:06:47;;;;;;;1.77;0.50;;;13.60;96.10;;;;;;5035096;28;20388;-89
2021/06/12 06:09:14;;;;;;;0.40;0.35;;;13.60;96.50;;;;;;5033704;28;20457;-87
2021/06/12 06:11:41;;;;;;;0.30;0.30;;;13.60;97.40;;;;;;5017210;28;20447;-89
2021/06/12 06:14:09;;;;;;;1.50;0.50;;;13.50;97.80;;;;;;5023421;28;20402;-89
2021/06/12 06:16:36;;;;;;;0.50;0.50;;;13.40;98.20;;;;;;5045802;28;20394;-87
2021/06/12 06:19:03;;;;;;;0.65;0.60;;;13.40;98.60;;;;;;5049883;28;20470;-89
2021/06/12 06:21:30;;;;;;;0.32;0.32;;;13.30;98.70;;;;;;5043220;28;20390;-91
2021/06/12 06:23:57;;;;;;;0.40;0.40;;;13.30;98.70;;;;;;5037415;28;20428;-91
2021/06/12 06:26:24;;;;;;;0.68;0.68;;;13.20;99.30;;;;;;5032072;28;20426;-91
2021/06/12 06:28:51;;;;;;;1.90;1.80;;;13.20;99.40;;;;;;5048012;28;20383;-90
2021/06/12 06:31:18;;;;;;;0.50;0.50;;;13.10;99.60;;;;;;5037914;28;20893;-89
2021/06/12 06:33:45;;;;;;;0.50;0.50;;;13.10;99.90;;;;;;5032052;28;20396;-89
2021/06/12 06:36:12;;;;;;;0.80;0.57;;;13.00;99.90;;;;;;5056494;28;20878;-90
2021/06/12 06:38:40;;;;;;;1.00;0.63;;;13.00;99.90;;;;;;5052428;28;20388;-87
2021/06/12 06:41:08;;;;;;;0.60;0.50;;;12.90;99.90;;;;;;5049510;28;20376;-87
2021/06/12 06:43:35;;;;;;;0.55;0.50;;;12.90;99.90;;;;;;5049663;28;20940;-85
2021/06/12 06:46:02;;;;;;;0.50;0.43;;;12.80;99.90;;;;;;5054384;28;20391;-89
2021/06/12 06:48:29;;;;;;;0.88;0.45;;;12.80;99.90;;;;;;5052022;28;20859;-88
2021/06/12 06:50:56;;;;;;;0.80;0.50;;;12.80;99.90;;;;;;5052209;28;20376;-89
2021/06/12 06:53:23;;;;;;;0.90;0.45;;;12.70;99.90;;;;;;5053498;28;20376;-88
2021/06/12 06:55:50;;;;;;;0.90;0.90;;;12.60;99.90;;;;;;5050012;28;20926;-88
2021/06/12 06:58:17;;;;;;;2.47;0.80;;;12.60;99.90;;;;;;5048735;28;20387;-88
2021/06/12 07:00:44;;;;;;;1.00;0.90;;;12.50;99.90;;;;;;5052157;28;20775;-86
2021/06/12 07:03:11;;;;;;;1.15;1.05;;;12.50;99.90;;;;;;5055111;28;21988;-88
2021/06/12 07:05:38;;;;;;;1.40;1.30;;;12.40;99.90;;;;;;5049850;28;20391;-88
2021/06/12 07:08:06;;;;;;;1.50;1.40;;;12.30;99.90;;;;;;5047544;28;20401;-88
2021/06/12 07:10:33;;;;;;;1.38;1.27;;;12.20;99.90;;;;;;5048783;28;20391;-87
2021/06/12 07:13:01;;;;;;;1.25;1.15;;;12.10;99.90;;;;;;5048838;28;20894;-87
2021/06/12 07:15:31;;;;;;;1.30;1.10;;;12.10;99.90;;;;;;5048014;28;20396;-89
2021/06/12 07:17:58;;;;;;;1.87;1.50;;;12.00;99.90;;;;;;5049704;28;20419;-90
2021/06/12 07:20:25;;;;;;;0.97;0.97;;;12.00;99.90;;;;;;5049501;28;20379;-86
2021/06/12 07:22:52;;;;;;;1.15;1.00;;;12.00;99.90;;;;;;5048331;28;20410;-91
2021/06/12 07:25:20;;;;;;;1.23;1.13;;;11.90;99.90;;;;;;5049657;28;20735;-85
2021/06/12 07:27:47;;;;;;;1.23;1.13;;;11.80;99.90;;;;;;5045544;28;20474;-88
2021/06/12 07:30:14;;;;;;;1.55;1.45;;;11.80;99.90;;;;;;5044180;28;20466;-89
2021/06/12 07:32:41;;;;;;;1.45;1.35;;;11.70;99.90;;;;;;5057003;28;20435;-87
2021/06/12 07:35:09;;;;;;;1.70;1.60;;;11.60;99.90;;;;;;5048505;28;20449;-87
2021/06/12 07:37:36;;;;;;;2.10;1.90;;;11.60;99.90;;;;;;5050982;28;20754;-88
2021/06/12 07:40:05;;;;;;;1.63;1.52;;;11.50;99.90;;;;;;5051762;28;20458;-87
2021/06/12 07:42:32;;;;;;;1.45;1.35;;;11.50;99.90;;;;;;5053577;28;20406;-87
2021/06/12 07:44:59;;;;;;;1.90;1.38;;;11.50;99.90;;;;;;5047492;28;20419;-87
2021/06/12 07:47:26;;;;;;;1.50;1.40;;;11.50;99.90;;;;;;5047635;28;20399;-86
2021/06/12 07:49:53;;;;;;;1.63;1.52;;;11.60;99.90;;;;;;5050591;28;20409;-87
2021/06/12 07:52:20;;;;;;;2.60;1.43;;;11.60;99.90;;;;;;5052295;28;20396;-86
2021/06/12 07:54:47;;;;;;;3.40;2.08;;;11.50;99.90;;;;;;5046765;28;20404;-87
2021/06/12 07:57:14;;;;;;;2.30;2.10;;;11.50;99.90;;;;;;5050233;28;20419;-87
2021/06/12 07:59:41;;;;;;;2.08;1.90;;;11.50;99.90;;;;;;5052049;28;20458;-87
2021/06/12 08:02:08;;;;;;;4.22;2.10;;;11.50;99.90;;;;;;5053018;28;20419;-87
2021/06/12 08:04:35;;;;;;;3.22;2.70;;;11.50;99.90;;;;;;5048548;28;20395;-87
2021/06/12 08:07:02;;;;;;;4.13;2.50;;;11.30;99.90;;;;;;5048515;28;20468;-87
2021/06/12 08:09:29;;;;;;;3.77;2.67;;;11.40;99.90;;;;;;5048908;28;20388;-86
2021/06/12 08:11:56;;;;;;;2.83;2.38;;;11.40;99.90;;;;;;5047597;28;20423;-84
2021/06/12 08:14:23;;;;;;;2.83;2.53;;;11.30;99.90;;;;;;5048783;28;20384;-86
2021/06/12 08:16:50;;;;;;;2.47;2.23;;;11.20;99.90;;;;;;5041362;28;21022;-84
2021/06/12 08:19:17;;;;;;;3.15;2.33;;;11.20;99.90;;;;;;5049182;28;20392;-86
2021/06/12 08:21:44;;;;;;;2.88;2.40;;;11.20;99.90;;;;;;5045854;28;20396;-85
2021/06/12 08:24:12;;;;;;;2.92;2.38;;;11.20;99.90;;;;;;5033766;28;20419;-83
2021/06/12 08:26:39;;;;;;;5.20;2.72;;;11.20;99.90;;;;;;5050983;28;20391;-84
2021/06/12 08:29:06;;;;;;;2.47;2.13;;;11.10;99.90;;;;;;5050961;28;20391;-85
2021/06/12 08:31:37;;;;;;;2.95;2.53;;;11.10;99.90;;;;;;5051327;28;20437;-85
2021/06/12 08:34:04;;;;;;;3.67;2.80;;;11.00;99.90;;;;;;5050930;28;20732;-85
2021/06/12 08:36:31;;;;;;;3.42;2.88;;;10.90;99.90;;;;;;5044997;28;20416;-88
2021/06/12 08:38:58;;;;;;;2.92;2.60;;;10.90;99.90;;;;;;5052203;28;20380;-87
2021/06/12 08:41:25;;;;;;;3.28;2.70;;;10.80;99.90;;;;;;5050824;28;20560;-87
2021/06/12 08:44:00;;;;;;;3.13;2.70;;;10.70;99.90;;;;;;5051751;28;20739;-86
2021/06/12 08:46:28;;;;;;;2.90;2.23;;;10.70;99.90;;;;;;5051528;28;20563;-88
2021/06/12 08:48:56;;;;;;;2.50;2.08;;;10.70;99.90;;;;;;5055673;28;20383;-88
2021/06/12 08:51:24;;;;;;;2.22;2.03;;;10.60;99.90;;;;;;5051922;28;20766;-87
2021/06/12 08:53:51;;;;;;;2.28;2.08;;;10.60;99.90;;;;;;5049520;28;20395;-87
2021/06/12 08:56:19;;;;;;;2.95;1.60;;;10.60;99.90;;;;;;5052388;28;20508;-87
2021/06/12 08:58:46;;;;;;;2.33;2.05;;;10.60;99.90;;;;;;5060221;28;20451;-88
2021/06/12 09:01:14;;;;;;;2.42;2.00;;;10.50;99.90;;;;;;5053433;28;20400;-87
2021/06/12 09:03:43;;;;;;;2.43;2.10;;;10.50;99.90;;;;;;5054765;28;20376;-88
2021/06/12 09:06:12;;;;;;;2.00;1.80;;;10.50;99.90;;;;;;5053297;28;20380;-86
2021/06/12 09:08:41;;;;;;;1.90;1.75;;;10.40;99.90;;;;;;5051802;28;20391;-89
2021/06/12 09:11:13;;;;;;;1.60;1.50;;;10.40;99.90;;;;;;5053091;28;20595;-88
2021/06/12 09:13:42;;;;;;;1.77;1.67;;;10.40;99.90;;;;;;5051646;28;20785;-86
2021/06/12 09:16:27;;;;;;;1.42;1.33;;;10.30;99.90;;;;;;5051896;28;20411;-87
2021/06/12 09:18:56;;;;;;;1.80;1.50;;;10.30;99.90;;;;;;5052032;28;20407;-86
2021/06/12 09:21:35;;;;;;;2.28;1.30;;;10.30;99.90;;;;;;5035370;28;20455;-88
2021/06/12 09:24:05;;;;;;;1.30;1.20;;;10.30;99.90;;;;;;5048667;28;20408;-88
2021/06/12 09:26:46;;;;;;;1.10;1.00;;;10.30;99.90;;;;;;5051224;28;20494;-93
2021/06/12 09:29:18;;;;;;;1.70;1.13;;;10.20;99.90;;;;;;5053076;28;20383;-90
2021/06/12 09:31:53;;;;;;;1.40;1.30;;;10.20;99.90;;;;;;5056762;28;20380;-90
2021/06/12 09:34:26;;;;;;;2.00;1.45;;;10.20;99.90;;;;;;5056022;28;20395;-89
2021/06/12 09:36:53;;;;;;;1.50;1.40;;;10.20;99.90;;;;;;5051443;28;20411;-86
2021/06/12 09:39:23;;;;;;;1.90;1.73;;;10.20;99.90;;;;;;5051830;28;20411;-91
2021/06/12 09:41:52;;;;;;;2.42;2.03;;;10.20;99.90;;;;;;5052801;28;20476;-88
2021/06/12 09:44:40;;;;;;;2.20;2.00;;;10.20;99.90;;;;;;5049324;28;20875;-88
2021/06/12 09:47:26;;;;;;;2.05;1.88;;;10.10;99.90;;;;;;5049994;28;20477;-90
2021/06/12 09:50:00;;;;;;;1.98;1.70;;;10.10;99.90;;;;;;5049201;28;20399;-88
2021/06/12 09:52:28;;;;;;;2.40;1.90;;;10.10;99.90;;;;;;5043787;28;20910;-87
2021/06/12 09:54:55;;;;;;;2.00;1.85;;;10.10;99.90;;;;;;5048373;28;20478;-87
2021/06/12 09:57:25;;;;;;;3.40;1.83;;;10.00;99.90;;;;;;5046874;28;20451;-87
2021/06/12 09:59:56;;;;;;;1.80;1.70;;;10.00;99.90;;;;;;5040500;28;20392;-89
2021/06/12 10:02:45;;;;;;;1.70;1.60;;;10.00;99.90;;;;;;5040148;28;20416;-87
2021/06/12 10:05:15;;;;;;;2.13;1.85;;;9.90;99.90;;;;;;5040624;28;20487;-88
2021/06/12 10:07:43;;;;;;;1.73;1.63;;;9.90;99.90;;;;;;5043708;28;20401;-85
2021/06/12 10:10:12;;;;;;;1.65;1.50;;;9.80;99.90;;;;;;5047780;28;20421;-86
2021/06/12 10:12:40;;;;;;;1.30;1.20;;;9.80;99.90;;;;;;5048086;28;20384;-84
2021/06/12 10:15:12;;;;;;;1.10;1.00;;;9.80;99.90;;;;;;5046454;28;20964;-87
2021/06/12 10:17:57;;;;;;;2.17;1.20;;;9.80;99.90;;;;;;5046060;28;20545;-86
2021/06/12 10:20:25;;;;;;;1.35;1.25;;;9.80;99.90;;;;;;5042902;28;20393;-85
2021/06/12 10:22:53;;;;;;;1.42;1.33;;;9.90;99.90;;;;;;5027621;28;20378;-85
2021/06/12 10:25:22;;;;;;;1.70;1.20;;;9.90;99.90;;;;;;5027538;28;20889;-86
2021/06/12 10:27:49;;;;;;;1.52;1.20;;;9.90;99.90;;;;;;5043668;28;20388;-84
2021/06/12 10:30:20;;;;;;;1.65;1.40;;;9.90;99.90;;;;;;5045684;28;20393;-85
2021/06/12 10:32:50;;;;;;;2.00;1.70;;;9.80;99.90;;;;;;5044254;28;20419;-85
2021/06/12 10:35:20;;;;;;;1.77;1.60;;;9.80;99.90;;;;;;5046810;28;20484;-84
2021/06/12 10:38:13;;;;;;;1.65;1.42;;;9.80;99.90;;;;;;5045417;28;20489;-85
2021/06/12 10:40:57;;;;;;;1.77;1.67;;;9.80;99.90;;;;;;5046004;28;20441;-84
2021/06/12 10:43:29;;;;;;;2.00;1.73;;;9.70;99.90;;;;;;5041035;28;20482;-85
2021/06/12 10:46:05;;;;;;;1.77;1.67;;;9.60;99.90;;;;;;5047212;28;20470;-84
2021/06/12 10:48:46;;;;;;;1.98;1.83;;;9.60;99.90;;;;;;5047064;28;20375;-85
2021/06/12 10:51:34;;;;;;;2.40;1.85;;;9.50;99.90;;;;;;5042163;28;20404;-84
2021/06/12 10:54:10;;;;;;;2.40;2.20;;;9.40;99.90;;;;;;5042442;28;20431;-86
2021/06/12 10:56:40;;;;;;;2.70;1.80;;;9.40;99.90;;;;;;5032438;28;20420;-85
2021/06/12 10:59:08;;;;;;;1.80;1.70;;;9.30;99.90;;;;;;5045685;28;20395;-85
2021/06/12 11:01:57;;;;;;;2.92;2.00;;;9.30;99.90;;;;;;5044693;28;20407;-84
2021/06/12 11:04:42;;;;;;;2.30;2.08;;;9.30;99.90;;;;;;5045251;28;20431;-84
2021/06/12 11:07:29;;;;;;;2.00;1.90;;;9.20;99.90;;;;;;5047679;28;20396;-85
2021/06/12 11:10:18;;;;;;;2.15;1.90;;;9.20;99.90;;;;;;5046152;28;21161;-88
2021/06/12 11:12:50;;;;;;;2.05;1.85;;;9.10;99.90;;;;;;5030734;28;20500;-86
2021/06/12 11:15:23;;;;;;;2.60;2.00;;;9.10;99.90;;;;;;5039925;28;20403;-87
2021/06/12 11:18:22;;;;;;;2.85;2.10;;;9.00;99.90;;;;;;5044897;28;20809;-87
2021/06/12 11:21:04;;;;;;;2.63;2.30;;;9.00;99.90;;;;;;5032351;28;20717;-86
2021/06/12 11:23:44;;;;;;;3.75;2.10;;;9.00;99.90;;;;;;5043968;28;20392;-86
2021/06/12 11:26:14;;;;;;;2.72;2.17;;;9.00;99.90;;;;;;5040006;28;20399;-87
2021/06/12 11:28:42;;;;;;;3.22;2.38;;;9.00;99.90;;;;;;5040746;28;20461;-87
2021/06/12 11:31:35;;;;;;;2.63;2.42;;;8.90;99.90;;;;;;5045171;28;20399;-87
2021/06/12 11:34:18;;;;;;;3.40;2.27;;;8.90;99.90;;;;;;5039312;28;20419;-86
2021/06/12 11:36:48;;;;;;;2.30;2.10;;;8.90;99.90;;;;;;5034201;28;20412;-85
2021/06/12 11:39:16;;;;;;;2.53;2.20;;;8.90;99.90;;;;;;5040122;28;20391;-85
2021/06/12 11:41:43;;;;;;;2.75;2.25;;;8.90;99.90;;;;;;5039686;28;20404;-84
2021/06/12 11:44:11;;;;;;;2.87;2.03;;;8.90;99.90;;;;;;5037019;28;20410;-87
2021/06/12 11:46:44;;;;;;;2.22;2.00;;;8.90;99.90;;;;;;5043719;28;20407;-87
2021/06/12 11:49:13;;;;;;;2.90;2.20;;;8.90;99.90;;;;;;5045254;28;20388;-84
2021/06/12 11:51:44;;;;;;;2.70;2.40;;;8.90;99.90;;;;;;5048391;28;20387;-87
2021/06/12 11:54:16;;;;;;;3.03;2.63;;;8.90;99.90;;;;;;5048078;28;20516;-87
2021/06/12 11:56:58;;;;;;;2.60;2.40;;;8.90;99.90;;;;;;5048099;28;20420;-87
2021/06/12 11:59:31;;;;;;;3.03;2.72;;;8.90;99.90;;;;;;5040595;28;20466;-87
2021/06/12 12:02:06;;;;;;;2.93;2.40;;;8.90;99.90;;;;;;5047237;28;20497;-84
2021/06/12 12:04:41;;;;;;;2.50;2.30;;;8.90;99.90;;;;;;5044209;28;20477;-86
2021/06/12 12:07:10;;;;;;;2.88;2.47;;;8.80;99.90;;;;;;5047539;28;20403;-87
2021/06/12 12:09:44;;;;;;;3.40;2.60;;;8.80;99.90;;;;;;5048236;28;20391;-87
2021/06/12 12:12:21;;;;;;;3.03;2.72;;;8.80;99.90;;;;;;5048916;28;20384;-87
2021/06/12 12:14:54;;;;;;;2.92;2.70;;;8.90;99.90;;;;;;5047571;28;20380;-88
2021/06/12 12:17:26;;;;;;;3.13;2.83;;;8.90;99.90;;;;;;5048618;28;20450;-87
2021/06/12 12:20:07;;;;;;;3.97;2.47;;;8.90;99.90;;;;;;5047460;28;20383;-86
2021/06/12 12:22:51;;;;;;;2.85;2.38;;;8.90;99.90;;;;;;5047893;28;20482;-87
2021/06/12 12:25:25;;;;;;;2.50;2.25;;;8.90;99.90;;;;;;5048612;28;20392;-87
2021/06/12 12:28:13;;;;;;;2.50;2.30;;;8.80;99.90;;;;;;5048236;28;20390;-84
2021/06/12 12:30:42;;;;;;;2.60;2.40;;;8.80;99.90;;;;;;5048117;28;20820;-84
2021/06/12 12:33:11;;;;;;;3.65;2.90;;;8.80;99.90;;;;;;5047958;28;20380;-84
2021/06/12 12:35:38;;;;;;;2.83;2.60;;;8.70;99.90;;;;;;5046948;28;20391;-87
2021/06/12 12:38:15;;;;;;;3.35;2.63;;;8.70;99.90;;;;;;5048627;28;20388;-88
2021/06/12 12:40:43;;;;;;;3.55;3.08;;;8.50;99.90;;;;;;5048574;28;20451;-87
2021/06/12 12:43:12;;;;;;;3.92;3.10;;;8.50;99.90;;;;;;5045886;28;20496;-88
2021/06/12 12:45:41;;;;;;;3.83;3.42;;;8.30;99.90;;;;;;5054749;28;20450;-87
2021/06/12 12:48:10;;;;;;;4.07;3.67;;;8.30;99.90;;;;;;5046401;28;20407;-87
2021/06/12 12:50:37;;;;;;;4.45;3.50;;;8.20;99.90;;;;;;5045857;28;20414;-86
2021/06/12 12:53:09;;;;;;;3.70;3.10;;;8.10;99.90;;;;;;5046106;28;20396;-87
2021/06/12 12:55:39;;;;;;;4.72;2.70;;;8.10;99.90;;;;;;5046425;28;20419;-87
2021/06/12 12:58:07;;;;;;;2.80;2.60;;;8.10;99.90;;;;;;5048993;28;20854;-87
2021/06/12 13:00:37;;;;;;;2.80;2.40;;;8.10;99.90;;;;;;5049582;28;20389;-87
2021/06/12 13:03:09;;;;;;;2.05;1.90;;;8.10;99.90;;;;;;5049361;28;20400;-88